sensor_id;sensor_type;location;lat;lon;timestamp;pressure;altitude;pressure_sealevel;temperature;humidity
70730;BME280;58315;53.336;55.932;2023-03-19T00:01:58;101132.56;;;3.93;57.55
70730;BME280;58315;53.336;55.932;2023-03-19T00:04:25;101131.69;;;3.93;57.91
70730;BME280;58315;53.336;55.932;2023-03-19T00:06:52;101126.66;;;3.88;57.25
70730;BME280;58315;53.336;55.932;2023-03-19T00:09:19;101128.13;;;3.95;57.59
70730;BME280;58315;53.336;55.932;2023-03-19T00:11:47;101141.88;;;4.00;57.19
70730;BME280;58315;53.336;55.932;2023-03-19T00:14:13;101144.84;;;4.13;57.30
70730;BME280;58315;53.336;55.932;2023-03-19T00:16:40;101151.75;;;4.16;57.42
70730;BME280;58315;53.336;55.932;2023-03-19T00:19:06;101148.69;;;4.26;57.20
70730;BME280;58315;53.336;55.932;2023-03-19T00:21:33;101152.91;;;4.30;57.29
70730;BME280;58315;53.336;55.932;2023-03-19T00:23:59;101158.81;;;4.35;57.14
70730;BME280;58315;53.336;55.932;2023-03-19T00:26:28;101162.09;;;4.41;56.81
70730;BME280;58315;53.336;55.932;2023-03-19T00:28:55;101172.34;;;4.47;56.77
70730;BME280;58315;53.336;55.932;2023-03-19T00:31:22;101173.72;;;4.55;56.88
70730;BME280;58315;53.336;55.932;2023-03-19T00:33:48;101170.25;;;4.55;57.03
70730;BME280;58315;53.336;55.932;2023-03-19T00:36:14;101172.16;;;4.51;57.01
70730;BME280;58315;53.336;55.932;2023-03-19T00:38:42;101177.00;;;4.60;56.39
70730;BME280;58315;53.336;55.932;2023-03-19T00:41:08;101183.78;;;4.66;56.93
70730;BME280;58315;53.336;55.932;2023-03-19T00:43:35;101183.53;;;4.72;56.62
70730;BME280;58315;53.336;55.932;2023-03-19T00:46:02;101192.84;;;4.79;56.51
70730;BME280;58315;53.336;55.932;2023-03-19T00:48:29;101197.16;;;4.80;56.54
70730;BME280;58315;53.336;55.932;2023-03-19T00:50:55;101205.56;;;4.89;57.18
70730;BME280;58315;53.336;55.932;2023-03-19T00:53:21;101206.47;;;4.88;56.32
70730;BME280;58315;53.336;55.932;2023-03-19T00:55:47;101210.78;;;4.89;56.57
70730;BME280;58315;53.336;55.932;2023-03-19T00:58:13;101208.25;;;4.87;56.46
70730;BME280;58315;53.336;55.932;2023-03-19T01:00:39;101205.66;;;4.86;56.07
70730;BME280;58315;53.336;55.932;2023-03-19T01:03:05;101206.66;;;4.83;55.74
70730;BME280;58315;53.336;55.932;2023-03-19T01:05:34;101214.38;;;4.86;55.56
70730;BME280;58315;53.336;55.932;2023-03-19T01:08:00;101210.00;;;4.87;55.19
70730;BME280;58315;53.336;55.932;2023-03-19T01:10:29;101219.19;;;4.97;54.31
70730;BME280;58315;53.336;55.932;2023-03-19T01:12:57;101218.81;;;5.06;54.68
70730;BME280;58315;53.336;55.932;2023-03-19T01:15:23;101223.66;;;5.15;53.92
70730;BME280;58315;53.336;55.932;2023-03-19T01:17:49;101234.88;;;5.19;53.76
70730;BME280;58315;53.336;55.932;2023-03-19T01:20:15;101230.88;;;5.10;52.97
70730;BME280;58315;53.336;55.932;2023-03-19T01:22:44;101232.31;;;5.17;52.91
70730;BME280;58315;53.336;55.932;2023-03-19T01:25:12;101229.63;;;5.19;53.35
70730;BME280;58315;53.336;55.932;2023-03-19T01:27:43;101241.75;;;5.21;52.86
70730;BME280;58315;53.336;55.932;2023-03-19T01:30:10;101235.88;;;5.16;52.68
70730;BME280;58315;53.336;55.932;2023-03-19T01:32:56;101250.75;;;5.16;53.06
70730;BME280;58315;53.336;55.932;2023-03-19T01:35:48;101251.19;;;5.05;52.07
70730;BME280;58315;53.336;55.932;2023-03-19T01:38:16;101253.06;;;5.01;52.60
70730;BME280;58315;53.336;55.932;2023-03-19T01:40:46;101258.13;;;5.06;52.51
70730;BME280;58315;53.336;55.932;2023-03-19T01:43:18;101257.72;;;5.15;52.17
70730;BME280;58315;53.336;55.932;2023-03-19T01:49:06;101263.56;;;5.22;51.84
70730;BME280;58315;53.336;55.932;2023-03-19T01:51:38;101271.22;;;5.26;51.91
70730;BME280;58315;53.336;55.932;2023-03-19T01:54:25;101268.78;;;5.23;51.99
70730;BME280;58315;53.336;55.932;2023-03-19T01:57:19;101266.38;;;5.17;52.02
70730;BME280;58315;53.336;55.932;2023-03-19T01:59:54;101270.06;;;5.13;51.95
70730;BME280;58315;53.336;55.932;2023-03-19T02:02:52;101272.25;;;5.02;52.14
70730;BME280;58315;53.336;55.932;2023-03-19T02:05:48;101280.66;;;5.10;52.28
70730;BME280;58315;53.336;55.932;2023-03-19T02:08:18;101276.06;;;5.15;52.28
70730;BME280;58315;53.336;55.932;2023-03-19T02:10:45;101288.81;;;5.02;52.23
70730;BME280;58315;53.336;55.932;2023-03-19T02:13:12;101292.06;;;5.09;52.76
70730;BME280;58315;53.336;55.932;2023-03-19T02:15:40;101292.78;;;5.13;52.19
70730;BME280;58315;53.336;55.932;2023-03-19T02:18:07;101307.41;;;5.18;52.17
70730;BME280;58315;53.336;55.932;2023-03-19T02:28:18;101316.59;;;5.06;51.67
70730;BME280;58315;53.336;55.932;2023-03-19T02:30:46;101313.91;;;5.08;51.64
70730;BME280;58315;53.336;55.932;2023-03-19T02:33:15;101314.59;;;5.13;51.44
70730;BME280;58315;53.336;55.932;2023-03-19T02:35:45;101313.47;;;5.19;51.94
70730;BME280;58315;53.336;55.932;2023-03-19T02:38:14;101315.34;;;5.17;51.90
70730;BME280;58315;53.336;55.932;2023-03-19T02:43:20;101335.03;;;5.05;52.44
70730;BME280;58315;53.336;55.932;2023-03-19T02:45:46;101345.31;;;5.10;51.80
70730;BME280;58315;53.336;55.932;2023-03-19T02:48:13;101345.31;;;5.10;51.47
70730;BME280;58315;53.336;55.932;2023-03-19T02:50:38;101346.50;;;5.01;51.43
70730;BME280;58315;53.336;55.932;2023-03-19T02:53:04;101345.03;;;4.72;52.25
70730;BME280;58315;53.336;55.932;2023-03-19T02:55:31;101356.28;;;4.74;51.30
70730;BME280;58315;53.336;55.932;2023-03-19T02:57:57;101356.69;;;4.63;51.55
70730;BME280;58315;53.336;55.932;2023-03-19T03:00:23;101354.16;;;4.62;51.68
70730;BME280;58315;53.336;55.932;2023-03-19T03:02:50;101368.19;;;4.35;51.95
70730;BME280;58315;53.336;55.932;2023-03-19T03:05:16;101359.59;;;4.32;51.56
70730;BME280;58315;53.336;55.932;2023-03-19T03:07:42;101377.22;;;4.27;52.31
70730;BME280;58315;53.336;55.932;2023-03-19T03:10:10;101370.56;;;4.18;52.10
70730;BME280;58315;53.336;55.932;2023-03-19T03:12:39;101383.47;;;4.23;53.18
70730;BME280;58315;53.336;55.932;2023-03-19T03:15:06;101386.25;;;4.18;53.03
70730;BME280;58315;53.336;55.932;2023-03-19T03:17:38;101383.28;;;4.27;53.03
70730;BME280;58315;53.336;55.932;2023-03-19T03:20:05;101391.03;;;4.30;52.56
70730;BME280;58315;53.336;55.932;2023-03-19T03:22:31;101391.03;;;4.30;53.11
70730;BME280;58315;53.336;55.932;2023-03-19T03:24:57;101396.38;;;4.27;53.01
70730;BME280;58315;53.336;55.932;2023-03-19T03:27:23;101397.50;;;4.20;53.36
70730;BME280;58315;53.336;55.932;2023-03-19T03:29:49;101405.25;;;4.23;52.68
70730;BME280;58315;53.336;55.932;2023-03-19T03:32:16;101403.84;;;4.13;52.09
70730;BME280;58315;53.336;55.932;2023-03-19T03:34:42;101406.63;;;4.08;51.12
70730;BME280;58315;53.336;55.932;2023-03-19T03:37:11;101417.63;;;3.93;50.55
70730;BME280;58315;53.336;55.932;2023-03-19T03:39:37;101421.44;;;3.83;50.22
70730;BME280;58315;53.336;55.932;2023-03-19T03:42:04;101431.06;;;3.82;50.23
70730;BME280;58315;53.336;55.932;2023-03-19T03:44:32;101452.31;;;3.98;50.41
70730;BME280;58315;53.336;55.932;2023-03-19T03:46:58;101443.44;;;3.77;49.88
70730;BME280;58315;53.336;55.932;2023-03-19T03:49:24;101449.22;;;3.87;49.91
70730;BME280;58315;53.336;55.932;2023-03-19T03:51:50;101448.88;;;3.71;50.59
70730;BME280;58315;53.336;55.932;2023-03-19T03:54:17;101453.25;;;3.71;51.00
70730;BME280;58315;53.336;55.932;2023-03-19T03:56:43;101450.22;;;3.83;50.76
70730;BME280;58315;53.336;55.932;2023-03-19T03:59:09;101454.66;;;3.81;50.20
70730;BME280;58315;53.336;55.932;2023-03-19T04:01:35;101458.22;;;3.78;49.81
70730;BME280;58315;53.336;55.932;2023-03-19T04:04:01;101457.22;;;3.82;49.03
70730;BME280;58315;53.336;55.932;2023-03-19T04:06:28;101465.47;;;3.97;49.12
70730;BME280;58315;53.336;55.932;2023-03-19T04:09:10;101466.16;;;4.02;48.91
70730;BME280;58315;53.336;55.932;2023-03-19T04:11:37;101474.66;;;4.08;49.02
70730;BME280;58315;53.336;55.932;2023-03-19T04:14:04;101465.09;;;4.07;49.07
70730;BME280;58315;53.336;55.932;2023-03-19T04:16:32;101466.88;;;4.07;48.01
70730;BME280;58315;53.336;55.932;2023-03-19T04:18:58;101468.09;;;3.97;47.46
70730;BME280;58315;53.336;55.932;2023-03-19T04:21:25;101465.56;;;3.94;47.58
70730;BME280;58315;53.336;55.932;2023-03-19T04:23:51;101471.63;;;3.96;48.13
70730;BME280;58315;53.336;55.932;2023-03-19T04:26:17;101467.25;;;3.95;47.99
70730;BME280;58315;53.336;55.932;2023-03-19T04:28:43;101479.56;;;3.93;47.51
70730;BME280;58315;53.336;55.932;2023-03-19T04:31:10;101478.72;;;3.91;47.92
70730;BME280;58315;53.336;55.932;2023-03-19T04:33:41;101487.56;;;4.15;47.28
70730;BME280;58315;53.336;55.932;2023-03-19T04:36:08;101489.56;;;4.06;47.23
70730;BME280;58315;53.336;55.932;2023-03-19T04:38:35;101498.94;;;4.14;46.98
70730;BME280;58315;53.336;55.932;2023-03-19T04:41:03;101489.97;;;4.21;46.74
70730;BME280;58315;53.336;55.932;2023-03-19T04:43:32;101495.13;;;4.22;46.86
70730;BME280;58315;53.336;55.932;2023-03-19T04:45:59;101490.72;;;4.24;46.32
70730;BME280;58315;53.336;55.932;2023-03-19T04:48:26;101494.63;;;4.38;47.06
70730;BME280;58315;53.336;55.932;2023-03-19T04:50:53;101511.44;;;4.30;46.05
70730;BME280;58315;53.336;55.932;2023-03-19T04:53:22;101510.66;;;4.28;46.82
70730;BME280;58315;53.336;55.932;2023-03-19T04:55:49;101506.78;;;4.39;46.55
70730;BME280;58315;53.336;55.932;2023-03-19T04:58:18;101507.50;;;4.44;46.69
70730;BME280;58315;53.336;55.932;2023-03-19T05:00:49;101518.16;;;4.38;46.28
70730;BME280;58315;53.336;55.932;2023-03-19T05:03:20;101518.75;;;4.46;46.04
70730;BME280;58315;53.336;55.932;2023-03-19T05:05:49;101522.78;;;4.56;45.97
70730;BME280;58315;53.336;55.932;2023-03-19T05:08:15;101527.75;;;4.64;45.77
70730;BME280;58315;53.336;55.932;2023-03-19T05:10:41;101524.84;;;4.71;45.14
70730;BME280;58315;53.336;55.932;2023-03-19T05:13:08;101536.03;;;4.76;45.09
70730;BME280;58315;53.336;55.932;2023-03-19T05:15:41;101527.22;;;4.79;44.81
70730;BME280;58315;53.336;55.932;2023-03-19T05:18:09;101523.47;;;4.86;44.99
70730;BME280;58315;53.336;55.932;2023-03-19T05:20:41;101526.03;;;4.88;44.44
70730;BME280;58315;53.336;55.932;2023-03-19T05:23:15;101535.41;;;4.95;44.17
70730;BME280;58315;53.336;55.932;2023-03-19T05:25:53;101526.50;;;4.99;44.44
70730;BME280;58315;53.336;55.932;2023-03-19T05:28:33;101523.53;;;5.08;43.86
70730;BME280;58315;53.336;55.932;2023-03-19T05:31:02;101529.66;;;5.08;44.11
70730;BME280;58315;53.336;55.932;2023-03-19T05:33:43;101535.28;;;4.98;43.37
70730;BME280;58315;53.336;55.932;2023-03-19T05:36:11;101535.59;;;4.89;42.63
70730;BME280;58315;53.336;55.932;2023-03-19T05:38:49;101540.25;;;4.80;42.51
70730;BME280;58315;53.336;55.932;2023-03-19T05:41:22;101542.72;;;4.85;42.32
70730;BME280;58315;53.336;55.932;2023-03-19T05:43:57;101537.47;;;4.85;41.92
70730;BME280;58315;53.336;55.932;2023-03-19T05:46:39;101543.66;;;4.82;41.66
70730;BME280;58315;53.336;55.932;2023-03-19T05:49:05;101547.75;;;4.91;41.06
70730;BME280;58315;53.336;55.932;2023-03-19T05:51:31;101545.69;;;4.99;40.99
70730;BME280;58315;53.336;55.932;2023-03-19T05:53:57;101558.06;;;4.96;40.77
70730;BME280;58315;53.336;55.932;2023-03-19T05:56:35;101554.03;;;4.86;40.27
70730;BME280;58315;53.336;55.932;2023-03-19T05:59:19;101543.34;;;4.92;40.52
70730;BME280;58315;53.336;55.932;2023-03-19T06:01:55;101544.63;;;5.05;39.81
70730;BME280;58315;53.336;55.932;2023-03-19T06:04:22;101540.19;;;5.07;40.65
70730;BME280;58315;53.336;55.932;2023-03-19T06:06:48;101544.75;;;5.02;39.42
70730;BME280;58315;53.336;55.932;2023-03-19T06:09:14;101549.91;;;5.03;39.22
70730;BME280;58315;53.336;55.932;2023-03-19T06:11:42;101555.63;;;4.90;39.01
70730;BME280;58315;53.336;55.932;2023-03-19T06:14:44;101554.59;;;4.95;39.13
70730;BME280;58315;53.336;55.932;2023-03-19T06:17:35;101557.31;;;4.92;40.03
70730;BME280;58315;53.336;55.932;2023-03-19T06:20:05;101549.06;;;5.03;38.72
70730;BME280;58315;53.336;55.932;2023-03-19T06:22:31;101558.53;;;5.07;39.15
70730;BME280;58315;53.336;55.932;2023-03-19T06:24:57;101567.78;;;4.92;38.25
70730;BME280;58315;53.336;55.932;2023-03-19T06:27:23;101558.59;;;5.05;38.84
70730;BME280;58315;53.336;55.932;2023-03-19T06:29:53;101552.03;;;5.17;37.95
70730;BME280;58315;53.336;55.932;2023-03-19T06:32:25;101561.97;;;5.09;37.46
70730;BME280;58315;53.336;55.932;2023-03-19T06:34:54;101559.44;;;5.06;37.84
70730;BME280;58315;53.336;55.932;2023-03-19T06:37:21;101574.13;;;5.10;38.64
70730;BME280;58315;53.336;55.932;2023-03-19T06:39:48;101565.16;;;5.17;38.00
70730;BME280;58315;53.336;55.932;2023-03-19T06:42:14;101570.19;;;5.23;37.77
70730;BME280;58315;53.336;55.932;2023-03-19T06:44:40;101564.31;;;5.17;37.20
70730;BME280;58315;53.336;55.932;2023-03-19T06:47:06;101565.25;;;5.14;37.11
70730;BME280;58315;53.336;55.932;2023-03-19T06:49:34;101566.72;;;5.23;37.69
70730;BME280;58315;53.336;55.932;2023-03-19T06:52:00;101577.13;;;5.24;37.59
70730;BME280;58315;53.336;55.932;2023-03-19T06:54:26;101567.66;;;5.20;37.45
70730;BME280;58315;53.336;55.932;2023-03-19T06:56:52;101569.16;;;5.27;37.19
70730;BME280;58315;53.336;55.932;2023-03-19T06:59:18;101561.03;;;5.33;37.19
70730;BME280;58315;53.336;55.932;2023-03-19T07:01:44;101574.78;;;5.40;36.43
70730;BME280;58315;53.336;55.932;2023-03-19T07:04:11;101570.97;;;5.25;36.19
70730;BME280;58315;53.336;55.932;2023-03-19T07:06:37;101573.59;;;5.25;37.21
70730;BME280;58315;53.336;55.932;2023-03-19T07:09:03;101575.13;;;5.31;37.12
70730;BME280;58315;53.336;55.932;2023-03-19T07:11:29;101577.75;;;5.31;37.18
70730;BME280;58315;53.336;55.932;2023-03-19T07:13:55;101571.19;;;5.43;37.00
70730;BME280;58315;53.336;55.932;2023-03-19T07:16:21;101570.25;;;5.45;37.02
70730;BME280;58315;53.336;55.932;2023-03-19T07:18:47;101570.41;;;5.64;36.70
70730;BME280;58315;53.336;55.932;2023-03-19T07:21:13;101568.72;;;5.62;36.89
70730;BME280;58315;53.336;55.932;2023-03-19T07:23:39;101568.22;;;5.75;36.93
70730;BME280;58315;53.336;55.932;2023-03-19T07:26:06;101562.66;;;5.83;35.68
70730;BME280;58315;53.336;55.932;2023-03-19T07:28:32;101569.63;;;5.84;35.60
70730;BME280;58315;53.336;55.932;2023-03-19T07:30:58;101570.06;;;5.95;35.59
70730;BME280;58315;53.336;55.932;2023-03-19T07:33:23;101572.34;;;6.04;35.28
70730;BME280;58315;53.336;55.932;2023-03-19T07:35:50;101581.69;;;6.12;35.15
70730;BME280;58315;53.336;55.932;2023-03-19T07:38:19;101576.25;;;6.16;35.62
70730;BME280;58315;53.336;55.932;2023-03-19T07:40:45;101575.75;;;6.28;34.81
70730;BME280;58315;53.336;55.932;2023-03-19T07:43:11;101577.88;;;6.41;34.83
70730;BME280;58315;53.336;55.932;2023-03-19T07:45:37;101572.44;;;6.45;34.95
70730;BME280;58315;53.336;55.932;2023-03-19T07:48:03;101570.72;;;6.44;34.90
70730;BME280;58315;53.336;55.932;2023-03-19T07:50:29;101564.72;;;6.63;35.47
70730;BME280;58315;53.336;55.932;2023-03-19T07:52:58;101580.91;;;6.72;34.27
70730;BME280;58315;53.336;55.932;2023-03-19T07:55:24;101580.97;;;6.50;34.47
70730;BME280;58315;53.336;55.932;2023-03-19T07:57:51;101590.22;;;6.39;34.33
70730;BME280;58315;53.336;55.932;2023-03-19T08:00:17;101578.94;;;6.37;34.23
70730;BME280;58315;53.336;55.932;2023-03-19T08:02:44;101579.06;;;6.34;32.76
70730;BME280;58315;53.336;55.932;2023-03-19T08:05:10;101570.88;;;6.19;32.80
70730;BME280;58315;53.336;55.932;2023-03-19T08:07:39;101563.66;;;6.24;33.14
70730;BME280;58315;53.336;55.932;2023-03-19T08:10:06;101566.66;;;6.58;33.76
70730;BME280;58315;53.336;55.932;2023-03-19T08:12:33;101565.31;;;6.69;33.30
70730;BME280;58315;53.336;55.932;2023-03-19T08:15:05;101568.50;;;6.76;33.14
70730;BME280;58315;53.336;55.932;2023-03-19T08:17:31;101559.03;;;6.72;32.02
70730;BME280;58315;53.336;55.932;2023-03-19T08:20:05;101578.16;;;6.96;32.86
70730;BME280;58315;53.336;55.932;2023-03-19T08:22:34;101569.91;;;6.85;32.47
70730;BME280;58315;53.336;55.932;2023-03-19T08:25:01;101566.47;;;6.83;31.73
70730;BME280;58315;53.336;55.932;2023-03-19T08:27:29;101569.78;;;6.88;32.26
70730;BME280;58315;53.336;55.932;2023-03-19T08:29:57;101564.28;;;7.13;31.64
70730;BME280;58315;53.336;55.932;2023-03-19T08:32:23;101564.09;;;7.17;31.36
70730;BME280;58315;53.336;55.932;2023-03-19T08:34:52;101558.97;;;7.33;31.57
70730;BME280;58315;53.336;55.932;2023-03-19T08:37:18;101562.19;;;7.40;31.48
70730;BME280;58315;53.336;55.932;2023-03-19T08:39:44;101561.91;;;7.46;31.41
70730;BME280;58315;53.336;55.932;2023-03-19T08:42:11;101565.19;;;7.51;32.16
70730;BME280;58315;53.336;55.932;2023-03-19T08:44:36;101559.44;;;7.62;32.37
70730;BME280;58315;53.336;55.932;2023-03-19T08:47:03;101555.59;;;7.69;31.05
70730;BME280;58315;53.336;55.932;2023-03-19T08:49:29;101567.19;;;7.65;30.76
70730;BME280;58315;53.336;55.932;2023-03-19T08:51:55;101563.19;;;7.56;30.69
70730;BME280;58315;53.336;55.932;2023-03-19T08:54:20;101553.38;;;7.60;30.62
70730;BME280;58315;53.336;55.932;2023-03-19T08:56:46;101562.50;;;7.71;31.24
70730;BME280;58315;53.336;55.932;2023-03-19T08:59:12;101552.72;;;7.73;30.54
70730;BME280;58315;53.336;55.932;2023-03-19T09:01:38;101554.06;;;7.82;30.81
70730;BME280;58315;53.336;55.932;2023-03-19T09:04:04;101549.38;;;7.89;31.20
70730;BME280;58315;53.336;55.932;2023-03-19T09:06:30;101550.16;;;7.91;30.38
70730;BME280;58315;53.336;55.932;2023-03-19T09:08:56;101554.94;;;7.83;30.07
70730;BME280;58315;53.336;55.932;2023-03-19T09:11:22;101544.91;;;7.91;30.80
70730;BME280;58315;53.336;55.932;2023-03-19T09:13:48;101537.94;;;8.07;30.17
70730;BME280;58315;53.336;55.932;2023-03-19T09:16:15;101539.44;;;8.13;30.32
70730;BME280;58315;53.336;55.932;2023-03-19T09:18:43;101542.91;;;8.13;30.33
70730;BME280;58315;53.336;55.932;2023-03-19T09:21:09;101540.03;;;8.01;29.84
70730;BME280;58315;53.336;55.932;2023-03-19T09:23:35;101541.88;;;7.98;29.76
70730;BME280;58315;53.336;55.932;2023-03-19T09:26:01;101543.03;;;7.93;29.27
70730;BME280;58315;53.336;55.932;2023-03-19T09:28:27;101542.19;;;7.92;30.11
70730;BME280;58315;53.336;55.932;2023-03-19T09:30:53;101540.44;;;8.10;30.22
70730;BME280;58315;53.336;55.932;2023-03-19T09:33:20;101538.09;;;8.04;29.52
70730;BME280;58315;53.336;55.932;2023-03-19T09:35:51;101537.19;;;8.22;29.17
70730;BME280;58315;53.336;55.932;2023-03-19T09:38:19;101537.56;;;7.97;29.07
70730;BME280;58315;53.336;55.932;2023-03-19T09:41:12;101538.66;;;8.11;29.02
70730;BME280;58315;53.336;55.932;2023-03-19T09:46:47;101539.91;;;8.21;29.31
70730;BME280;58315;53.336;55.932;2023-03-19T09:49:40;101528.81;;;8.14;29.88
70730;BME280;58315;53.336;55.932;2023-03-19T09:52:29;101533.84;;;8.19;29.21
70730;BME280;58315;53.336;55.932;2023-03-19T09:55:00;101528.13;;;8.11;28.84
70730;BME280;58315;53.336;55.932;2023-03-19T09:57:29;101534.31;;;8.10;28.67
70730;BME280;58315;53.336;55.932;2023-03-19T09:59:57;101530.56;;;8.15;29.02
70730;BME280;58315;53.336;55.932;2023-03-19T10:02:44;101531.56;;;8.30;29.56
70730;BME280;58315;53.336;55.932;2023-03-19T10:15:43;101520.69;;;8.19;29.01
70730;BME280;58315;53.336;55.932;2023-03-19T10:18:15;101516.19;;;8.04;28.74
70730;BME280;58315;53.336;55.932;2023-03-19T10:23:33;101515.81;;;8.29;28.73
70730;BME280;58315;53.336;55.932;2023-03-19T10:26:03;101512.56;;;8.06;27.81
70730;BME280;58315;53.336;55.932;2023-03-19T10:28:29;101509.13;;;7.87;26.87
70730;BME280;58315;53.336;55.932;2023-03-19T10:31:26;101519.91;;;8.00;26.57
70730;BME280;58315;53.336;55.932;2023-03-19T10:36:37;101510.00;;;7.68;27.08
70730;BME280;58315;53.336;55.932;2023-03-19T10:39:04;101522.66;;;7.60;26.68
70730;BME280;58315;53.336;55.932;2023-03-19T10:44:27;101513.13;;;7.58;26.05
70730;BME280;58315;53.336;55.932;2023-03-19T10:46:59;101512.00;;;7.44;26.15
70730;BME280;58315;53.336;55.932;2023-03-19T10:49:34;101517.25;;;7.44;26.64
70730;BME280;58315;53.336;55.932;2023-03-19T10:52:01;101511.16;;;7.44;26.43
70730;BME280;58315;53.336;55.932;2023-03-19T10:54:27;101506.16;;;7.57;26.90
70730;BME280;58315;53.336;55.932;2023-03-19T10:56:56;101511.59;;;7.54;26.12
70730;BME280;58315;53.336;55.932;2023-03-19T10:59:36;101517.69;;;7.54;26.16
70730;BME280;58315;53.336;55.932;2023-03-19T11:02:19;101507.78;;;7.59;26.20
70730;BME280;58315;53.336;55.932;2023-03-19T11:04:46;101516.28;;;7.47;26.75
70730;BME280;58315;53.336;55.932;2023-03-19T11:07:14;101510.88;;;7.50;26.01
70730;BME280;58315;53.336;55.932;2023-03-19T11:09:47;101511.34;;;7.58;26.29
70730;BME280;58315;53.336;55.932;2023-03-19T11:12:34;101497.94;;;7.64;26.31
70730;BME280;58315;53.336;55.932;2023-03-19T11:15:02;101504.81;;;7.48;26.22
70730;BME280;58315;53.336;55.932;2023-03-19T11:17:49;101509.16;;;7.49;25.86
70730;BME280;58315;53.336;55.932;2023-03-19T11:20:31;101507.56;;;7.64;26.27
70730;BME280;58315;53.336;55.932;2023-03-19T11:22:59;101509.16;;;7.49;25.30
70730;BME280;58315;53.336;55.932;2023-03-19T11:25:38;101506.50;;;7.49;25.04
70730;BME280;58315;53.336;55.932;2023-03-19T11:28:32;101501.34;;;7.47;25.23
70730;BME280;58315;53.336;55.932;2023-03-19T11:39:55;101491.47;;;7.34;24.36
70730;BME280;58315;53.336;55.932;2023-03-19T11:45:16;101488.81;;;7.15;23.89
70730;BME280;58315;53.336;55.932;2023-03-19T11:53:26;101482.84;;;7.11;24.04
70730;BME280;58315;53.336;55.932;2023-03-19T11:56:15;101470.34;;;6.97;23.86
70730;BME280;58315;53.336;55.932;2023-03-19T12:07:18;101474.50;;;6.83;24.98
70730;BME280;58315;53.336;55.932;2023-03-19T12:12:33;101484.91;;;6.65;25.68
70730;BME280;58315;53.336;55.932;2023-03-19T12:15:25;101470.47;;;6.55;25.74
70730;BME280;58315;53.336;55.932;2023-03-19T12:26:38;101464.69;;;6.47;26.55
70730;BME280;58315;53.336;55.932;2023-03-19T12:29:19;101455.78;;;6.51;28.26
70730;BME280;58315;53.336;55.932;2023-03-19T12:34:33;101459.25;;;6.51;26.61
70730;BME280;58315;53.336;55.932;2023-03-19T12:42:40;101448.38;;;6.40;27.04
70730;BME280;58315;53.336;55.932;2023-03-19T12:45:28;101455.22;;;6.63;31.93
70730;BME280;58315;53.336;55.932;2023-03-19T12:48:09;101455.09;;;6.66;34.50
70730;BME280;58315;53.336;55.932;2023-03-19T12:50:39;101455.69;;;6.32;36.32
70730;BME280;58315;53.336;55.932;2023-03-19T12:53:34;101455.44;;;6.18;36.15
70730;BME280;58315;53.336;55.932;2023-03-19T12:56:05;101454.19;;;6.06;37.00
70730;BME280;58315;53.336;55.932;2023-03-19T12:58:47;101449.41;;;6.16;37.10
70730;BME280;58315;53.336;55.932;2023-03-19T13:01:23;101450.66;;;6.07;37.37
70730;BME280;58315;53.336;55.932;2023-03-19T13:04:13;101447.22;;;6.05;38.62
70730;BME280;58315;53.336;55.932;2023-03-19T13:06:54;101448.63;;;5.92;38.14
70730;BME280;58315;53.336;55.932;2023-03-19T13:09:25;101441.38;;;5.76;37.44
70730;BME280;58315;53.336;55.932;2023-03-19T13:12:00;101449.78;;;5.85;36.21
70730;BME280;58315;53.336;55.932;2023-03-19T13:17:38;101440.53;;;5.54;36.39
70730;BME280;58315;53.336;55.932;2023-03-19T13:20:19;101435.06;;;5.38;37.43
70730;BME280;58315;53.336;55.932;2023-03-19T13:22:55;101429.13;;;5.33;36.49
70730;BME280;58315;53.336;55.932;2023-03-19T13:25:29;101422.38;;;5.27;36.57
70730;BME280;58315;53.336;55.932;2023-03-19T13:27:56;101427.31;;;5.12;36.70
70730;BME280;58315;53.336;55.932;2023-03-19T13:30:23;101424.78;;;5.10;36.92
70730;BME280;58315;53.336;55.932;2023-03-19T13:33:00;101424.16;;;5.03;36.13
70730;BME280;58315;53.336;55.932;2023-03-19T13:35:39;101425.59;;;4.89;36.67
70730;BME280;58315;53.336;55.932;2023-03-19T13:53:53;101412.88;;;4.54;37.47
70730;BME280;58315;53.336;55.932;2023-03-19T13:56:20;101413.72;;;4.31;37.08
70730;BME280;58315;53.336;55.932;2023-03-19T13:58:51;101416.63;;;4.22;36.09
70730;BME280;58315;53.336;55.932;2023-03-19T14:03:58;101420.81;;;4.03;37.11
70730;BME280;58315;53.336;55.932;2023-03-19T14:06:47;101420.44;;;3.87;36.22
70730;BME280;58315;53.336;55.932;2023-03-19T14:09:47;101421.00;;;3.97;36.79
70730;BME280;58315;53.336;55.932;2023-03-19T14:17:43;101416.28;;;3.81;36.42
70730;BME280;58315;53.336;55.932;2023-03-19T14:26:04;101414.88;;;3.71;36.63
70730;BME280;58315;53.336;55.932;2023-03-19T14:31:04;101424.34;;;3.47;37.17
70730;BME280;58315;53.336;55.932;2023-03-19T14:36:03;101421.78;;;3.46;37.14
70730;BME280;58315;53.336;55.932;2023-03-19T14:39:06;101426.19;;;3.44;37.41
70730;BME280;58315;53.336;55.932;2023-03-19T14:41:39;101424.50;;;3.43;36.99
70730;BME280;58315;53.336;55.932;2023-03-19T14:52:40;101431.41;;;3.44;37.22
70730;BME280;58315;53.336;55.932;2023-03-19T14:55:11;101427.69;;;3.24;37.42
70730;BME280;58315;53.336;55.932;2023-03-19T14:57:38;101423.38;;;3.23;37.74
70730;BME280;58315;53.336;55.932;2023-03-19T15:00:10;101419.22;;;3.16;37.24
70730;BME280;58315;53.336;55.932;2023-03-19T15:05:06;101422.50;;;3.23;37.44
70730;BME280;58315;53.336;55.932;2023-03-19T15:07:36;101419.22;;;3.16;37.39
70730;BME280;58315;53.336;55.932;2023-03-19T15:10:05;101415.03;;;3.10;37.05
70730;BME280;58315;53.336;55.932;2023-03-19T15:15:23;101414.19;;;3.10;36.48
70730;BME280;58315;53.336;55.932;2023-03-19T15:18:00;101416.88;;;3.07;37.72
70730;BME280;58315;53.336;55.932;2023-03-19T15:20:32;101413.31;;;3.09;37.92